Time;durP1;ratioP1;P1;durP2;ratioP2;P2;SDS_P1;SDS_P2;PMS_P1;PMS_P2;Temp;Humidity;BMP_temperature;BMP_pressure;BME280_temperature;BME280_humidity;BME280_pressure;Samples;Min_cycle;Max_cycle;Signal;HPM_P1;HPM_P2
2023/12/01 00:00:03;;;;;;;5.35;3.70;;;5.40;58.30;;;;;;5015936;28;20041;-83
2023/12/01 00:02:30;;;;;;;6.03;3.63;;;5.40;58.30;;;;;;5016899;28;20030;-83
2023/12/01 00:04:56;;;;;;;5.40;3.30;;;5.40;58.20;;;;;;5020798;28;20077;-84
2023/12/01 00:07:22;;;;;;;6.95;3.63;;;5.40;58.30;;;;;;5015949;28;20437;-85
2023/12/01 00:09:49;;;;;;;4.85;3.30;;;5.40;58.40;;;;;;5019420;28;20037;-83
2023/12/01 00:12:15;;;;;;;5.50;3.63;;;5.40;58.20;;;;;;5027921;28;20096;-84
2023/12/01 00:14:41;;;;;;;4.10;2.80;;;5.40;58.20;;;;;;4986429;28;20037;-84
2023/12/01 00:17:08;;;;;;;5.65;3.47;;;5.40;58.20;;;;;;5015722;28;20030;-87
2023/12/01 00:19:34;;;;;;;4.45;3.05;;;5.40;58.20;;;;;;5016967;28;20039;-84
2023/12/01 00:22:00;;;;;;;5.35;3.47;;;5.40;58.20;;;;;;5050830;28;20041;-84
2023/12/01 00:24:26;;;;;;;5.05;3.47;;;5.40;58.30;;;;;;5034789;28;20034;-84
2023/12/01 00:26:52;;;;;;;4.18;2.83;;;5.40;58.30;;;;;;5037859;28;20488;-85
2023/12/01 00:29:18;;;;;;;4.70;3.30;;;5.40;58.40;;;;;;5036306;28;20120;-85
2023/12/01 00:31:44;;;;;;;5.47;3.38;;;5.40;58.30;;;;;;5008516;28;20041;-85
2023/12/01 00:34:10;;;;;;;4.45;3.10;;;5.40;58.40;;;;;;5036773;28;20056;-84
2023/12/01 00:36:36;;;;;;;6.25;3.58;;;5.40;58.40;;;;;;5017783;28;20043;-84
2023/12/01 00:39:03;;;;;;;4.53;3.25;;;5.40;58.50;;;;;;5019143;28;20033;-84
2023/12/01 00:41:29;;;;;;;5.05;3.33;;;5.40;58.50;;;;;;5019060;28;20507;-84
2023/12/01 00:43:55;;;;;;;4.90;3.33;;;5.40;58.50;;;;;;5019984;28;20385;-85
2023/12/01 00:46:21;;;;;;;6.15;3.33;;;5.40;58.40;;;;;;5002488;28;20038;-87
2023/12/01 00:48:47;;;;;;;5.60;3.60;;;5.40;58.40;;;;;;5020573;28;20136;-87
2023/12/01 00:51:20;;;;;;;5.00;3.58;;;5.40;58.40;;;;;;4989611;28;20084;-91
2023/12/01 00:53:46;;;;;;;4.55;3.15;;;5.40;58.40;;;;;;5014156;28;20531;-90
2023/12/01 00:56:13;;;;;;;5.95;3.63;;;5.40;58.20;;;;;;4998796;28;20528;-87
2023/12/01 00:58:39;;;;;;;5.03;3.80;;;5.40;58.30;;;;;;4998303;28;20084;-85
2023/12/01 01:01:06;;;;;;;5.53;3.63;;;5.40;58.40;;;;;;5016487;28;20045;-84
2023/12/01 01:03:34;;;;;;;4.80;3.35;;;5.40;58.30;;;;;;4974597;28;20041;-83
2023/12/01 01:06:04;;;;;;;5.47;3.25;;;5.40;58.30;;;;;;4987193;28;20029;-82
2023/12/01 01:08:30;;;;;;;5.63;3.75;;;5.40;58.30;;;;;;5049705;28;20120;-82
2023/12/01 01:10:57;;;;;;;5.38;3.63;;;5.40;58.40;;;;;;5016293;28;20060;-85
2023/12/01 01:13:26;;;;;;;4.40;3.70;;;5.40;58.40;;;;;;5015717;28;20413;-83
2023/12/01 01:15:52;;;;;;;5.63;3.97;;;5.40;58.40;;;;;;5038183;28;20501;-84
2023/12/01 01:18:20;;;;;;;5.57;3.50;;;5.40;58.50;;;;;;5019172;28;20043;-84
2023/12/01 01:20:46;;;;;;;4.68;3.22;;;5.40;58.60;;;;;;5022581;28;20037;-83
2023/12/01 01:23:13;;;;;;;5.47;3.63;;;5.40;58.50;;;;;;5008531;28;20539;-83
2023/12/01 01:25:39;;;;;;;5.78;3.67;;;5.50;58.60;;;;;;5036350;28;20154;-83
2023/12/01 01:28:05;;;;;;;6.45;3.80;;;5.50;58.70;;;;;;5051263;28;20503;-83
2023/12/01 01:30:31;;;;;;;5.95;3.83;;;5.40;58.60;;;;;;5018002;28;20037;-83
2023/12/01 01:32:57;;;;;;;5.57;3.65;;;5.40;58.70;;;;;;5032652;28;20063;-80
2023/12/01 01:35:22;;;;;;;6.47;4.20;;;5.40;58.60;;;;;;5017105;28;20053;-84
2023/12/01 01:37:48;;;;;;;6.15;4.03;;;5.50;58.60;;;;;;5022517;28;20027;-82
2023/12/01 01:40:14;;;;;;;7.32;4.70;;;5.40;58.60;;;;;;5022503;28;20083;-83
2023/12/01 01:42:40;;;;;;;8.02;4.55;;;5.40;58.60;;;;;;5038794;28;20037;-81
2023/12/01 01:45:07;;;;;;;7.05;4.55;;;5.40;58.50;;;;;;5038224;28;20082;-82
2023/12/01 01:47:33;;;;;;;6.93;4.60;;;5.40;58.60;;;;;;5044353;28;20040;-80
2023/12/01 01:50:00;;;;;;;8.52;4.35;;;5.40;58.50;;;;;;5038098;28;21836;-80
2023/12/01 01:52:27;;;;;;;7.75;4.75;;;5.40;58.50;;;;;;5038182;28;20033;-80
2023/12/01 01:54:53;;;;;;;5.85;3.88;;;5.40;58.50;;;;;;5042334;28;20548;-80
2023/12/01 01:57:19;;;;;;;6.80;4.45;;;5.40;58.50;;;;;;5038114;28;20053;-80
2023/12/01 01:59:46;;;;;;;7.03;4.70;;;5.40;58.50;;;;;;5038297;28;20482;-81
2023/12/01 02:02:12;;;;;;;7.95;5.00;;;5.40;58.50;;;;;;5037084;28;20737;-83
2023/12/01 02:04:38;;;;;;;9.60;5.03;;;5.40;58.50;;;;;;5021408;28;20524;-83
2023/12/01 02:07:04;;;;;;;8.73;4.88;;;5.40;58.40;;;;;;5022874;28;20040;-82
2023/12/01 02:09:33;;;;;;;6.75;4.63;;;5.40;58.50;;;;;;5038637;28;20030;-85
2023/12/01 02:11:59;;;;;;;9.68;5.05;;;5.40;58.60;;;;;;5003002;28;20037;-84
2023/12/01 02:14:25;;;;;;;9.98;5.47;;;5.40;58.60;;;;;;5035848;28;20041;-85
2023/12/01 02:16:52;;;;;;;7.25;4.93;;;5.40;58.60;;;;;;5019032;28;20041;-83
2023/12/01 02:19:18;;;;;;;8.10;5.38;;;5.40;58.70;;;;;;5016834;28;20124;-84
2023/12/01 02:21:48;;;;;;;9.35;5.70;;;5.40;58.60;;;;;;5027968;28;20034;-84
2023/12/01 02:24:14;;;;;;;8.00;5.28;;;5.40;58.60;;;;;;5021011;28;20129;-84
2023/12/01 02:26:40;;;;;;;7.40;5.15;;;5.40;58.70;;;;;;4999951;28;20046;-85
2023/12/01 02:29:07;;;;;;;9.55;6.03;;;5.40;58.60;;;;;;5017982;28;20026;-86
2023/12/01 02:31:33;;;;;;;10.35;5.88;;;5.40;58.60;;;;;;5034314;28;20033;-85
2023/12/01 02:33:59;;;;;;;8.63;5.85;;;5.40;58.60;;;;;;5000743;28;20041;-85
2023/12/01 02:36:26;;;;;;;10.57;6.25;;;5.40;58.60;;;;;;5021128;28;20029;-87
2023/12/01 02:38:52;;;;;;;8.50;5.78;;;5.40;58.60;;;;;;5003960;28;20029;-86
2023/12/01 02:41:18;;;;;;;9.10;6.00;;;5.40;58.70;;;;;;5005964;28;20034;-86
2023/12/01 02:43:44;;;;;;;6.88;4.90;;;5.40;58.60;;;;;;5038551;28;20522;-86
2023/12/01 02:46:12;;;;;;;9.27;5.60;;;5.40;58.50;;;;;;5021123;28;20064;-86
2023/12/01 02:48:39;;;;;;;7.63;5.22;;;5.40;59.00;;;;;;5036114;28;20052;-87
2023/12/01 02:51:06;;;;;;;8.65;5.82;;;5.40;58.50;;;;;;5009237;28;20037;-87
2023/12/01 02:53:33;;;;;;;7.88;5.30;;;5.40;58.40;;;;;;5039098;28;20467;-86
2023/12/01 02:56:00;;;;;;;9.05;5.97;;;5.40;58.30;;;;;;5016708;28;20030;-88
2023/12/01 02:58:26;;;;;;;8.88;5.38;;;5.50;58.40;;;;;;5001067;28;20041;-85
2023/12/01 03:00:52;;;;;;;9.02;5.85;;;5.50;58.30;;;;;;5020274;28;20036;-88
2023/12/01 03:03:18;;;;;;;8.15;5.25;;;5.40;58.30;;;;;;5012443;28;20038;-88
2023/12/01 03:05:45;;;;;;;7.72;5.57;;;5.40;58.30;;;;;;5003267;28;20393;-84
2023/12/01 03:08:11;;;;;;;7.65;4.80;;;5.50;58.40;;;;;;5020024;28;20041;-85
2023/12/01 03:10:37;;;;;;;9.07;5.43;;;5.40;58.40;;;;;;5020193;28;20087;-86
2023/12/01 03:13:04;;;;;;;9.05;5.60;;;5.50;58.40;;;;;;5030400;28;20528;-86
2023/12/01 03:15:30;;;;;;;7.55;5.00;;;5.50;58.40;;;;;;5028282;28;20097;-85
2023/12/01 03:17:56;;;;;;;9.18;5.65;;;5.50;58.30;;;;;;5032106;28;20583;-83
2023/12/01 03:20:22;;;;;;;7.90;5.32;;;5.50;58.20;;;;;;5027921;28;20037;-85
2023/12/01 03:22:51;;;;;;;8.13;5.40;;;5.50;58.20;;;;;;5000137;28;20030;-83
2023/12/01 03:25:17;;;;;;;7.75;5.28;;;5.40;58.20;;;;;;5032604;28;20034;-84
2023/12/01 03:27:45;;;;;;;9.32;5.35;;;5.40;58.20;;;;;;5017329;28;20447;-82
2023/12/01 03:30:14;;;;;;;8.27;5.25;;;5.50;58.30;;;;;;5006289;28;20523;-82
2023/12/01 03:32:51;;;;;;;11.05;5.72;;;5.50;58.20;;;;;;5018469;28;20034;-83
2023/12/01 03:35:26;;;;;;;7.40;5.15;;;5.50;58.20;;;;;;5001200;28;20040;-87
2023/12/01 03:37:56;;;;;;;7.95;5.35;;;5.50;58.30;;;;;;5037091;28;20128;-87
2023/12/01 03:40:23;;;;;;;9.38;5.95;;;5.40;58.20;;;;;;5021520;28;20123;-87
2023/12/01 03:42:50;;;;;;;9.52;5.80;;;5.40;58.10;;;;;;5030141;28;20029;-85
2023/12/01 03:45:17;;;;;;;9.60;6.25;;;5.50;58.30;;;;;;5005657;28;20037;-90
2023/12/01 03:47:46;;;;;;;9.77;5.88;;;5.40;58.10;;;;;;5008793;28;20035;-86
2023/12/01 03:50:12;;;;;;;9.63;5.75;;;5.40;58.10;;;;;;5008306;28;20102;-90
2023/12/01 03:52:41;;;;;;;9.07;5.72;;;5.50;58.10;;;;;;5032723;28;20049;-87
2023/12/01 03:55:07;;;;;;;11.27;5.97;;;5.40;58.10;;;;;;5036756;28;20041;-92
2023/12/01 03:57:33;;;;;;;9.48;6.28;;;5.50;58.00;;;;;;5019362;28;20144;-86
2023/12/01 04:00:00;;;;;;;11.27;6.55;;;5.50;58.60;;;;;;5037666;28;20037;-89
2023/12/01 04:02:26;;;;;;;9.57;6.20;;;5.50;58.10;;;;;;4997906;28;20030;-84
2023/12/01 04:04:52;;;;;;;8.95;5.85;;;5.50;58.00;;;;;;5019615;28;20036;-90
2023/12/01 04:07:18;;;;;;;10.77;6.13;;;5.50;58.00;;;;;;5015974;28;20033;-88
2023/12/01 04:09:44;;;;;;;9.93;6.85;;;5.50;58.10;;;;;;5051539;28;20040;-85
2023/12/01 04:12:10;;;;;;;9.82;6.75;;;5.50;58.10;;;;;;5005710;28;20691;-89
2023/12/01 04:14:36;;;;;;;10.70;6.55;;;5.50;58.10;;;;;;5018521;28;20033;-85
2023/12/01 04:17:08;;;;;;;11.73;6.82;;;5.50;58.10;;;;;;5017416;28;20070;-86
2023/12/01 04:19:38;;;;;;;9.57;6.22;;;5.50;58.00;;;;;;5018893;28;20029;-87
2023/12/01 04:22:05;;;;;;;9.52;6.15;;;5.50;58.00;;;;;;4989002;28;20087;-88
2023/12/01 04:24:35;;;;;;;12.48;6.18;;;5.50;57.90;;;;;;5005018;28;20129;-85
2023/12/01 04:27:02;;;;;;;11.77;7.30;;;5.50;57.90;;;;;;5013839;28;20033;-82
2023/12/01 04:29:29;;;;;;;10.68;6.47;;;5.50;58.00;;;;;;5004440;28;20040;-81
2023/12/01 04:31:57;;;;;;;10.57;6.15;;;5.50;58.00;;;;;;4998226;28;20036;-82
2023/12/01 04:34:23;;;;;;;10.13;6.93;;;5.50;58.10;;;;;;5030403;28;20033;-80
2023/12/01 04:36:50;;;;;;;12.82;6.85;;;5.50;58.10;;;;;;5021351;28;20073;-80
2023/12/01 04:39:16;;;;;;;10.05;6.60;;;5.50;58.10;;;;;;5015103;28;20174;-78
2023/12/01 04:41:42;;;;;;;12.55;6.95;;;5.50;58.10;;;;;;5030000;28;20128;-83
2023/12/01 04:44:08;;;;;;;11.30;6.97;;;5.50;58.20;;;;;;5014500;28;20034;-79
2023/12/01 04:46:34;;;;;;;9.88;6.15;;;5.50;58.20;;;;;;5015185;28;20443;-79
2023/12/01 04:49:00;;;;;;;10.95;6.68;;;5.50;58.10;;;;;;5013658;28;20042;-77
2023/12/01 04:51:26;;;;;;;12.57;7.00;;;5.50;58.10;;;;;;5024443;28;20506;-81
2023/12/01 04:53:52;;;;;;;11.45;7.07;;;5.50;58.00;;;;;;5037345;28;20068;-79
2023/12/01 04:56:18;;;;;;;11.32;6.93;;;5.50;57.90;;;;;;5035689;28;20068;-77
2023/12/01 04:58:45;;;;;;;11.02;6.85;;;5.50;58.00;;;;;;5035509;28;20515;-77
2023/12/01 05:01:11;;;;;;;13.35;7.88;;;5.50;58.00;;;;;;5034102;28;20052;-79
2023/12/01 05:03:37;;;;;;;12.82;7.50;;;5.50;57.90;;;;;;5033364;28;20044;-79
2023/12/01 05:06:03;;;;;;;11.18;7.05;;;5.50;58.00;;;;;;5019360;28;20082;-78
2023/12/01 05:08:29;;;;;;;12.82;7.22;;;5.50;58.00;;;;;;5033147;28;20057;-78
2023/12/01 05:10:56;;;;;;;9.65;6.72;;;5.50;57.90;;;;;;5035828;28;21264;-78
2023/12/01 05:13:22;;;;;;;12.38;7.40;;;5.50;58.10;;;;;;5034287;28;20136;-77
2023/12/01 05:15:48;;;;;;;13.00;7.78;;;5.50;58.00;;;;;;5035386;28;20099;-77
2023/12/01 05:18:14;;;;;;;10.60;6.97;;;5.50;58.00;;;;;;5037433;28;20045;-78
2023/12/01 05:20:40;;;;;;;13.20;7.75;;;5.50;58.00;;;;;;5038349;28;20226;-79
2023/12/01 05:23:10;;;;;;;12.60;8.25;;;5.50;57.90;;;;;;5039517;28;20111;-79
2023/12/01 05:25:38;;;;;;;11.95;7.43;;;5.50;57.90;;;;;;5035877;28;20100;-78
2023/12/01 05:28:10;;;;;;;13.77;8.02;;;5.50;58.00;;;;;;5038717;28;20141;-79
2023/12/01 05:30:41;;;;;;;13.05;7.82;;;5.50;57.90;;;;;;5038655;28;20042;-79
2023/12/01 05:33:07;;;;;;;13.95;7.57;;;5.60;58.00;;;;;;5039531;28;20065;-78
2023/12/01 05:35:37;;;;;;;13.80;7.72;;;5.60;57.80;;;;;;5038670;28;20120;-79
2023/12/01 05:38:04;;;;;;;12.35;7.10;;;5.60;57.90;;;;;;5038439;28;20100;-78
2023/12/01 05:40:34;;;;;;;13.93;8.25;;;5.50;57.90;;;;;;5037791;28;20033;-78
2023/12/01 05:43:00;;;;;;;14.20;8.07;;;5.60;57.80;;;;;;5038350;28;20037;-77
2023/12/01 05:45:28;;;;;;;14.00;8.65;;;5.60;57.80;;;;;;5039512;28;20037;-78
2023/12/01 05:47:56;;;;;;;13.38;7.75;;;5.60;57.90;;;;;;5037980;28;20033;-79
2023/12/01 05:50:23;;;;;;;13.60;8.43;;;5.60;57.70;;;;;;5038571;28;20082;-79
2023/12/01 05:52:51;;;;;;;13.68;7.97;;;5.60;57.80;;;;;;5036382;28;20115;-79
2023/12/01 05:55:43;;;;;;;12.38;8.38;;;5.60;57.80;;;;;;5035598;28;20033;-79
2023/12/01 05:58:12;;;;;;;12.93;7.25;;;5.60;57.80;;;;;;5034476;28;20092;-78
2023/12/01 06:00:39;;;;;;;15.48;8.23;;;5.60;57.80;;;;;;5037387;28;20038;-78
2023/12/01 06:03:07;;;;;;;11.48;6.97;;;5.60;57.80;;;;;;5037566;28;20534;-78
2023/12/01 06:05:35;;;;;;;12.43;7.68;;;5.60;57.80;;;;;;5036905;28;20025;-78
2023/12/01 06:08:02;;;;;;;10.13;6.35;;;5.60;57.80;;;;;;5038478;28;20523;-78
2023/12/01 06:10:29;;;;;;;11.82;7.45;;;5.60;57.90;;;;;;5039112;28;20128;-79
2023/12/01 06:12:55;;;;;;;12.88;7.80;;;5.60;57.90;;;;;;5037696;28;20029;-79
2023/12/01 06:15:24;;;;;;;13.20;7.85;;;5.60;57.80;;;;;;5035860;28;20120;-78
2023/12/01 06:17:51;;;;;;;11.60;7.85;;;5.60;57.80;;;;;;5036363;28;20102;-79
2023/12/01 06:20:24;;;;;;;11.25;7.07;;;5.60;57.80;;;;;;5038105;28;20025;-79
2023/12/01 06:22:57;;;;;;;11.27;7.05;;;5.60;58.00;;;;;;5035716;28;20507;-79
2023/12/01 06:25:28;;;;;;;10.10;6.50;;;5.60;57.80;;;;;;5036894;28;20185;-79
2023/12/01 06:27:58;;;;;;;11.40;7.22;;;5.60;57.80;;;;;;5037123;28;20040;-78
2023/12/01 06:30:26;;;;;;;12.60;7.50;;;5.60;57.90;;;;;;5038323;28;20072;-80
2023/12/01 06:32:53;;;;;;;13.15;8.02;;;5.60;57.90;;;;;;5037405;28;20033;-75
2023/12/01 06:35:21;;;;;;;13.48;8.20;;;5.60;58.00;;;;;;5036236;28;20028;-76
2023/12/01 06:37:48;;;;;;;13.10;7.90;;;5.60;57.90;;;;;;5038176;28;20037;-76
2023/12/01 06:40:17;;;;;;;13.02;7.68;;;5.60;57.90;;;;;;5037289;28;20037;-77
2023/12/01 06:42:52;;;;;;;13.13;7.88;;;5.60;57.90;;;;;;5037924;28;20388;-76
2023/12/01 06:45:19;;;;;;;12.77;8.18;;;5.60;57.90;;;;;;5037096;28;20029;-76
2023/12/01 06:47:48;;;;;;;14.60;7.93;;;5.60;58.00;;;;;;5052713;28;20095;-76
2023/12/01 06:50:16;;;;;;;12.52;7.47;;;5.70;58.00;;;;;;5037767;28;20060;-76
2023/12/01 06:52:47;;;;;;;13.18;7.57;;;5.70;58.60;;;;;;5038082;28;20136;-76
2023/12/01 06:55:13;;;;;;;12.93;7.45;;;5.70;58.10;;;;;;5034856;28;20062;-76
2023/12/01 06:57:43;;;;;;;13.32;7.53;;;5.70;58.10;;;;;;5037658;28;20053;-76
2023/12/01 07:00:29;;;;;;;13.32;7.75;;;5.70;58.10;;;;;;5037115;28;20049;-76
2023/12/01 07:03:00;;;;;;;13.18;7.47;;;5.70;58.00;;;;;;5035578;28;20041;-76
2023/12/01 07:05:27;;;;;;;14.25;8.30;;;5.70;58.00;;;;;;5035644;28;20033;-76
2023/12/01 07:07:54;;;;;;;12.20;7.50;;;5.70;58.00;;;;;;5036999;28;20033;-75
2023/12/01 07:10:23;;;;;;;13.15;8.00;;;5.70;58.00;;;;;;5036017;28;20826;-76
2023/12/01 07:12:50;;;;;;;12.43;7.72;;;5.70;58.00;;;;;;5036209;28;20437;-76
2023/12/01 07:15:20;;;;;;;13.23;8.20;;;5.70;57.90;;;;;;5038075;28;20044;-78
2023/12/01 07:17:50;;;;;;;11.55;7.47;;;5.70;57.90;;;;;;5036806;28;20492;-76
2023/12/01 07:20:18;;;;;;;12.25;7.30;;;5.70;57.90;;;;;;5036871;28;20033;-77
2023/12/01 07:22:48;;;;;;;11.23;7.45;;;5.70;57.90;;;;;;5036860;28;20082;-76
2023/12/01 07:25:21;;;;;;;14.15;7.50;;;5.70;57.80;;;;;;5032973;28;20516;-76
2023/12/01 07:27:56;;;;;;;11.73;7.25;;;5.70;57.80;;;;;;5036589;28;20328;-78
2023/12/01 07:30:23;;;;;;;14.30;7.37;;;5.70;57.80;;;;;;5035836;28;20039;-76
2023/12/01 07:32:49;;;;;;;11.90;7.57;;;5.70;57.80;;;;;;5035956;28;20263;-76
2023/12/01 07:35:16;;;;;;;11.32;7.43;;;5.80;57.80;;;;;;5037235;28;20102;-76
2023/12/01 07:37:45;;;;;;;11.95;7.63;;;5.80;57.70;;;;;;5035051;28;20045;-76
2023/12/01 07:40:23;;;;;;;13.30;7.80;;;5.70;57.70;;;;;;5034523;28;20044;-76
2023/12/01 07:42:51;;;;;;;11.15;7.30;;;5.80;57.80;;;;;;5036371;28;20543;-75
2023/12/01 07:45:18;;;;;;;13.38;7.90;;;5.80;57.70;;;;;;5035700;28;20127;-76
2023/12/01 07:47:48;;;;;;;11.27;6.97;;;5.70;57.70;;;;;;5031493;28;20056;-76
2023/12/01 07:50:16;;;;;;;12.13;7.15;;;5.80;57.60;;;;;;5034660;28;20534;-76
2023/12/01 07:52:43;;;;;;;10.98;7.53;;;5.80;57.70;;;;;;5024463;28;20033;-75
2023/12/01 07:55:09;;;;;;;11.57;7.93;;;5.80;57.80;;;;;;5034564;28;20097;-75
2023/12/01 07:57:38;;;;;;;12.02;7.97;;;5.80;57.70;;;;;;5033719;28;20075;-75
2023/12/01 08:00:14;;;;;;;13.70;7.50;;;5.80;57.70;;;;;;5034434;28;20038;-78
2023/12/01 08:02:44;;;;;;;12.18;7.43;;;5.80;57.70;;;;;;5034120;28;20499;-76
2023/12/01 08:05:15;;;;;;;11.95;7.00;;;5.80;57.60;;;;;;5032020;28;20049;-76
2023/12/01 08:07:52;;;;;;;12.75;7.45;;;5.80;57.70;;;;;;5033622;28;20037;-76
2023/12/01 08:10:22;;;;;;;14.48;7.70;;;5.80;57.70;;;;;;5033328;28;20041;-76
2023/12/01 08:12:56;;;;;;;12.90;7.70;;;5.80;57.80;;;;;;5033811;28;20079;-77
2023/12/01 08:15:26;;;;;;;10.57;6.95;;;5.80;57.60;;;;;;5033871;28;20129;-76
2023/12/01 08:17:56;;;;;;;10.63;6.88;;;5.80;57.60;;;;;;5029529;28;20040;-77
2023/12/01 08:20:24;;;;;;;11.40;7.40;;;5.80;57.50;;;;;;5013707;28;20659;-77
2023/12/01 08:22:50;;;;;;;13.32;8.07;;;5.80;57.80;;;;;;5013490;28;20022;-76
2023/12/01 08:25:17;;;;;;;15.15;9.35;;;5.80;57.70;;;;;;5013589;28;20034;-76
2023/12/01 08:27:43;;;;;;;14.32;9.20;;;5.80;57.60;;;;;;5012541;28;20079;-77
2023/12/01 08:30:10;;;;;;;12.25;8.00;;;5.80;57.60;;;;;;5011290;28;20128;-75
2023/12/01 08:32:37;;;;;;;14.45;8.63;;;5.80;57.60;;;;;;5010737;28;20480;-76
2023/12/01 08:35:03;;;;;;;12.63;7.65;;;5.80;57.60;;;;;;5012864;28;20453;-76
2023/12/01 08:37:30;;;;;;;13.82;8.30;;;5.80;57.60;;;;;;5012738;28;20420;-75
2023/12/01 08:39:56;;;;;;;11.23;7.45;;;5.80;57.70;;;;;;5013831;28;20056;-75
2023/12/01 08:42:22;;;;;;;12.95;7.88;;;5.90;57.70;;;;;;5013625;28;20512;-77
2023/12/01 08:44:48;;;;;;;13.05;8.00;;;5.80;57.70;;;;;;5013722;28;20037;-77
2023/12/01 08:47:17;;;;;;;11.63;7.82;;;5.80;57.80;;;;;;5013625;28;20033;-75
2023/12/01 08:49:43;;;;;;;11.48;7.78;;;5.80;57.90;;;;;;5012274;28;20567;-75
2023/12/01 08:52:10;;;;;;;11.88;7.45;;;5.90;57.90;;;;;;5015720;28;20077;-75
2023/12/01 08:54:36;;;;;;;11.93;8.13;;;5.80;57.90;;;;;;5026755;28;20087;-75
2023/12/01 08:57:02;;;;;;;11.52;7.10;;;5.90;58.00;;;;;;5031507;28;20077;-75
2023/12/01 08:59:28;;;;;;;13.18;8.60;;;5.90;58.10;;;;;;5016856;28;20037;-75
2023/12/01 09:01:54;;;;;;;11.57;8.07;;;5.90;58.00;;;;;;5038191;28;20095;-76
2023/12/01 09:04:21;;;;;;;13.43;8.48;;;5.90;58.10;;;;;;5037398;28;20041;-76
2023/12/01 09:06:47;;;;;;;13.50;7.97;;;5.90;58.10;;;;;;5035854;28;20091;-76
2023/12/01 09:09:13;;;;;;;12.73;8.43;;;5.90;58.20;;;;;;5038288;28;20045;-76
2023/12/01 09:11:39;;;;;;;13.95;8.45;;;5.90;58.20;;;;;;5036697;28;20033;-75
2023/12/01 09:14:05;;;;;;;12.38;8.35;;;5.90;58.20;;;;;;5037853;28;20045;-77
2023/12/01 09:16:31;;;;;;;18.73;8.77;;;5.90;58.20;;;;;;5037870;28;20033;-77
2023/12/01 09:18:57;;;;;;;16.08;10.00;;;5.90;58.20;;;;;;5037354;28;20065;-77
2023/12/01 09:21:23;;;;;;;14.82;9.18;;;5.90;58.20;;;;;;5036948;28;20531;-78
2023/12/01 09:23:50;;;;;;;13.23;8.98;;;5.90;58.20;;;;;;5019131;28;20121;-77
2023/12/01 09:26:17;;;;;;;15.48;9.57;;;5.90;58.40;;;;;;5037617;28;20029;-76
2023/12/01 09:28:50;;;;;;;14.90;9.45;;;5.90;58.20;;;;;;5037277;28;20032;-76
2023/12/01 09:31:16;;;;;;;15.48;9.82;;;5.90;58.30;;;;;;5035920;28;20033;-77
2023/12/01 09:33:46;;;;;;;15.85;9.48;;;5.90;58.40;;;;;;5037498;28;20033;-76
2023/12/01 09:36:17;;;;;;;18.00;9.52;;;5.90;58.40;;;;;;5036996;28;20041;-75
2023/12/01 09:38:49;;;;;;;16.92;9.85;;;6.00;58.40;;;;;;5037159;28;20037;-76
2023/12/01 09:41:18;;;;;;;;;;;6.00;58.40;;;;;;5026154;28;20611;-77
2023/12/01 09:43:44;;;;;;;;;;;5.90;58.40;;;;;;5038179;28;19916;-78
2023/12/01 09:46:15;;;;;;;17.80;9.68;;;6.00;58.50;;;;;;5035357;28;19917;-77
2023/12/01 09:48:42;;;;;;;17.92;10.88;;;6.00;58.50;;;;;;5036112;28;20041;-76
2023/12/01 09:51:08;;;;;;;16.00;10.25;;;5.90;58.50;;;;;;5037689;28;20040;-76
2023/12/01 09:53:35;;;;;;;20.20;11.68;;;5.90;58.50;;;;;;5036689;28;20064;-76
2023/12/01 09:56:03;;;;;;;16.73;10.88;;;6.00;58.60;;;;;;5036783;28;20061;-77
2023/12/01 09:58:30;;;;;;;19.48;10.65;;;5.90;58.70;;;;;;5037530;28;20147;-77
2023/12/01 10:00:56;;;;;;;19.92;11.10;;;5.90;58.70;;;;;;5036236;28;20032;-75
2023/12/01 10:03:22;;;;;;;17.05;10.88;;;6.00;58.60;;;;;;5036427;28;20033;-76
2023/12/01 10:05:48;;;;;;;16.40;10.40;;;6.00;58.70;;;;;;5037377;28;20037;-74
2023/12/01 10:08:17;;;;;;;19.05;11.93;;;6.00;58.60;;;;;;5035634;28;20119;-77
2023/12/01 10:10:44;;;;;;;17.42;10.80;;;6.00;58.70;;;;;;5036395;28;20447;-76
2023/12/01 10:13:11;;;;;;;19.00;10.55;;;6.00;58.70;;;;;;5034181;28;20049;-76
2023/12/01 10:15:38;;;;;;;21.30;11.93;;;6.00;58.70;;;;;;5036353;28;20045;-77
2023/12/01 10:18:30;;;;;;;21.17;12.07;;;6.00;58.60;;;;;;5032627;28;20452;-76
2023/12/01 10:21:03;;;;;;;18.13;11.77;;;6.00;58.80;;;;;;5032617;28;20025;-75
2023/12/01 10:23:30;;;;;;;21.77;11.55;;;6.00;58.70;;;;;;5036550;28;20053;-76
2023/12/01 10:25:57;;;;;;;21.80;12.68;;;6.00;58.60;;;;;;5036441;28;20411;-75
2023/12/01 10:28:39;;;;;;;17.08;11.23;;;6.00;58.80;;;;;;5036066;28;20037;-76
2023/12/01 10:31:06;;;;;;;17.67;11.07;;;6.00;58.80;;;;;;5034081;28;20428;-76
2023/12/01 10:33:35;;;;;;;18.58;11.38;;;6.00;58.70;;;;;;5034336;28;20467;-77
2023/12/01 10:36:09;;;;;;;16.60;11.00;;;6.00;58.90;;;;;;5035146;28;20629;-76
2023/12/01 10:38:36;;;;;;;17.42;11.18;;;6.00;58.90;;;;;;5035773;28;20549;-76
2023/12/01 10:41:04;;;;;;;18.08;11.00;;;6.00;58.90;;;;;;5036064;28;20029;-76
2023/12/01 10:43:31;;;;;;;17.55;10.70;;;6.00;59.00;;;;;;5035532;28;20527;-76
2023/12/01 10:46:03;;;;;;;20.17;11.70;;;6.00;59.10;;;;;;5035724;28;20043;-76
2023/12/01 10:48:30;;;;;;;18.35;11.23;;;6.00;59.00;;;;;;5035001;28;20081;-76
2023/12/01 10:50:56;;;;;;;15.75;10.40;;;5.90;59.20;;;;;;5034686;28;20041;-76
2023/12/01 10:53:26;;;;;;;16.45;10.25;;;6.00;59.10;;;;;;5036055;28;20080;-76
2023/12/01 10:55:54;;;;;;;16.17;10.73;;;6.00;59.10;;;;;;5035419;28;20078;-76
2023/12/01 10:58:25;;;;;;;18.08;11.30;;;6.00;59.20;;;;;;5034781;28;20103;-76
2023/12/01 11:01:00;;;;;;;18.10;11.02;;;6.00;59.30;;;;;;5034731;28;20087;-77
2023/12/01 11:03:30;;;;;;;17.80;11.45;;;5.90;59.30;;;;;;5036483;28;20095;-76
2023/12/01 11:06:10;;;;;;;16.95;10.30;;;6.00;59.10;;;;;;5035140;28;20151;-76
2023/12/01 11:08:50;;;;;;;18.83;11.23;;;6.00;59.10;;;;;;5033779;28;20608;-77
2023/12/01 11:11:56;;;;;;;17.38;11.13;;;6.00;59.20;;;;;;5009231;28;20048;-76
2023/12/01 11:14:26;;;;;;;15.73;10.15;;;6.00;59.20;;;;;;5033399;28;20541;-78
2023/12/01 11:16:53;;;;;;;18.30;10.73;;;6.00;59.10;;;;;;5035967;28;20822;-78
2023/12/01 11:19:19;;;;;;;15.52;9.85;;;6.00;59.10;;;;;;5019436;28;20045;-79
2023/12/01 11:21:49;;;;;;;15.30;9.82;;;6.00;59.10;;;;;;5027930;28;20029;-78
2023/12/01 11:24:32;;;;;;;16.52;10.23;;;6.00;59.20;;;;;;5022394;28;20037;-78
2023/12/01 11:27:05;;;;;;;17.40;11.02;;;6.00;59.10;;;;;;5035685;28;20115;-78
2023/12/01 11:29:36;;;;;;;16.33;10.40;;;6.00;59.10;;;;;;5035372;28;20064;-78
2023/12/01 11:32:03;;;;;;;16.08;10.30;;;6.00;59.10;;;;;;5036335;28;20017;-78
2023/12/01 11:34:30;;;;;;;15.55;10.05;;;6.00;59.10;;;;;;5037209;28;20438;-77
2023/12/01 11:37:06;;;;;;;15.40;9.73;;;6.00;59.10;;;;;;5035969;28;20057;-78
2023/12/01 11:39:32;;;;;;;16.17;9.90;;;6.00;59.20;;;;;;5036369;28;20112;-78
2023/12/01 11:41:58;;;;;;;15.50;9.50;;;6.00;59.20;;;;;;5035872;28;20047;-78
2023/12/01 11:44:29;;;;;;;14.77;9.50;;;6.00;59.20;;;;;;5035741;28;20052;-78
2023/12/01 11:46:59;;;;;;;18.20;10.48;;;6.00;59.30;;;;;;5036652;28;20036;-78
2023/12/01 11:49:30;;;;;;;16.25;10.15;;;6.00;59.50;;;;;;5037027;28;20047;-79
2023/12/01 11:52:01;;;;;;;17.02;10.60;;;6.00;59.30;;;;;;5035590;28;20045;-78
2023/12/01 11:54:27;;;;;;;15.55;10.48;;;6.00;59.40;;;;;;5036354;28;20043;-78
2023/12/01 11:56:58;;;;;;;17.20;9.95;;;6.00;59.30;;;;;;5036094;28;20132;-77
2023/12/01 11:59:27;;;;;;;17.25;10.25;;;6.00;59.60;;;;;;5036444;28;20040;-77
2023/12/01 12:01:54;;;;;;;16.48;10.40;;;6.00;59.60;;;;;;5036735;28;20056;-77
2023/12/01 12:04:20;;;;;;;16.13;10.77;;;6.00;59.60;;;;;;5035332;28;20396;-77
2023/12/01 12:06:46;;;;;;;15.95;10.25;;;6.00;59.60;;;;;;5035822;28;20464;-79
2023/12/01 12:09:17;;;;;;;16.08;10.43;;;6.00;59.50;;;;;;5035002;28;20120;-77
2023/12/01 12:11:45;;;;;;;18.17;10.52;;;6.00;59.70;;;;;;5036166;28;20098;-77
2023/12/01 12:14:12;;;;;;;16.27;10.68;;;6.00;59.70;;;;;;5036291;28;20030;-76
2023/12/01 12:16:39;;;;;;;17.27;11.05;;;6.00;59.70;;;;;;5035073;28;20317;-78
2023/12/01 12:19:05;;;;;;;18.33;11.13;;;6.00;59.70;;;;;;5036637;28;20029;-78
2023/12/01 12:21:33;;;;;;;16.50;11.02;;;6.00;59.90;;;;;;5034769;28;20034;-78
2023/12/01 12:24:00;;;;;;;16.98;11.18;;;6.00;60.00;;;;;;5035130;28;20044;-77
2023/12/01 12:26:27;;;;;;;17.63;11.07;;;6.00;59.80;;;;;;5022669;28;20029;-79
2023/12/01 12:28:56;;;;;;;16.92;11.20;;;6.00;59.90;;;;;;5036680;28;20059;-78
2023/12/01 12:31:27;;;;;;;18.67;11.35;;;6.00;59.80;;;;;;5034595;28;20456;-76
2023/12/01 12:33:54;;;;;;;17.90;11.60;;;6.00;60.00;;;;;;5035350;28;20037;-76
2023/12/01 12:36:25;;;;;;;17.63;10.57;;;5.90;59.90;;;;;;5039143;28;20033;-77
2023/12/01 12:38:51;;;;;;;16.83;10.85;;;5.90;59.80;;;;;;5034621;28;20041;-77
2023/12/01 12:41:29;;;;;;;18.52;11.23;;;5.90;59.80;;;;;;5036839;28;20156;-77
2023/12/01 12:43:58;;;;;;;18.40;11.45;;;5.90;59.80;;;;;;5016623;28;20043;-77
2023/12/01 12:46:25;;;;;;;20.42;11.82;;;5.90;59.90;;;;;;5018511;28;20491;-76
2023/12/01 12:49:11;;;;;;;19.15;11.30;;;5.90;60.00;;;;;;5022219;28;20132;-77
2023/12/01 12:51:38;;;;;;;17.47;11.17;;;5.90;59.90;;;;;;5026108;28;20510;-78